Stella, Wisconsin
Current Conditions -  °F | °C
As of 9:23 PM on Tuesday 25 Nov 2014 (Local Time) from KRHI Reporting Station
Clear Clear  
Wind Chill:   Ceiling: Unl
Heat Index:   Visibility: 10mi
Dew Point: -1°   Wind: 0mph
Humidity: 88%   Direction: NA
Pressure: 30.04"   Gusts: NA
Location:  45.6521°N, 89.3386°W
Report Text: KRHI 260323Z AUTO 00000KT 10SM CLR M17/M18 A3004 RMK AO2 T11671183
Loading
Personal Weather Stations






























Interactive Weather Map New forecast layout! Learn more

10-Day Weather Forecast

Advertisements
Track Severe Weather on mobile